Time;durP1;ratioP1;P1;durP2;ratioP2;P2;SDS_P1;SDS_P2;PMS_P1;PMS_P2;Temp;Humidity;BMP_temperature;BMP_pressure;BME280_temperature;BME280_humidity;BME280_pressure;Samples;Min_cycle;Max_cycle;Signal;HPM_P1;HPM_P2
2023/09/27 00:27:58;;;;;;;71.27;44.67;;;13.00;99.90;;;;;;6149044;23;20209;-84
2023/09/27 00:53:17;;;;;;;70.27;44.03;;;12.80;99.90;;;;;;5936502;24;20271;-85
2023/09/27 01:18:22;;;;;;;64.83;42.07;;;12.70;99.90;;;;;;5783675;24;20745;-87
2023/09/27 01:38:54;;;;;;;72.30;45.43;;;12.70;99.90;;;;;;5936557;24;20525;-84
2023/09/27 01:59:15;;;;;;;63.37;41.40;;;12.50;99.90;;;;;;5965109;23;20206;-86
2023/09/27 02:18:52;;;;;;;55.67;38.13;;;12.50;99.90;;;;;;6010085;23;20438;-86
2023/09/27 02:39:35;;;;;;;56.83;39.03;;;12.20;99.90;;;;;;5829730;24;20214;-84
2023/09/27 03:05:05;;;;;;;55.43;37.27;;;12.00;99.90;;;;;;5783731;24;20686;-84
2023/09/27 03:55:54;;;;;;;63.80;39.23;;;12.00;99.90;;;;;;5881016;24;20265;-83
2023/09/27 04:20:41;;;;;;;61.60;40.00;;;11.80;99.90;;;;;;5696669;24;20270;-82
2023/09/27 04:46:19;;;;;;;61.37;40.83;;;11.90;99.90;;;;;;5613025;25;20186;-85
2023/09/27 05:06:34;;;;;;;61.03;41.30;;;12.10;99.90;;;;;;5849926;24;20204;-87
2023/09/27 05:31:46;;;;;;;62.23;42.13;;;12.60;99.90;;;;;;6026349;23;20566;-86
2023/09/27 05:57:19;;;;;;;80.90;55.63;;;13.90;99.90;;;;;;5773270;24;20217;-86
2023/09/27 06:53:11;;;;;;;41.87;34.83;;;16.00;99.90;;;;;;6119258;23;20312;31
2023/09/27 07:02:52;;;;;;;35.70;29.50;;;16.40;99.90;;;;;;6113912;23;20198;31
2023/09/27 09:30:11;;;;;;;24.17;16.90;;;20.70;99.90;;;;;;6046139;23;20383;-89
2023/09/27 09:51:11;;;;;;;18.92;15.20;;;21.20;99.90;;;;;;6039421;23;20843;-89
2023/09/27 09:55:30;;;;;;;16.55;14.80;;;21.20;99.90;;;;;;6070624;23;20444;-88
2023/09/27 10:21:30;;;;;;;18.13;12.98;;;21.80;99.90;;;;;;5782655;24;20299;-88
2023/09/27 11:11:45;;;;;;;14.23;11.80;;;22.90;90.60;;;;;;5509994;25;20457;-87
2023/09/27 12:33:16;;;;;;;11.95;9.75;;;24.40;82.10;;;;;;5807776;24;20177;-86
2023/09/27 14:04:10;;;;;;;9.90;7.10;;;25.30;61.70;;;;;;5762215;24;20210;-85
2023/09/27 14:40:13;;;;;;;10.45;8.27;;;24.70;66.40;;;;;;6023859;23;20436;-86
2023/09/27 15:10:42;;;;;;;10.38;8.50;;;24.00;79.70;;;;;;5912492;23;20190;-87
2023/09/27 15:35:53;;;;;;;12.68;8.50;;;23.70;79.90;;;;;;5749272;24;20945;-86
2023/09/27 16:01:03;;;;;;;9.75;8.73;;;22.70;86.00;;;;;;5862715;24;20426;-84
2023/09/27 17:02:01;;;;;;;13.50;11.83;;;18.50;99.90;;;;;;5821298;24;20305;-86
2023/09/27 17:27:43;;;;;;;17.47;12.40;;;17.60;99.90;;;;;;5875868;24;20191;-86
2023/09/27 17:47:53;;;;;;;17.13;13.07;;;17.10;99.90;;;;;;5815826;24;20213;-87
2023/09/27 18:08:19;;;;;;;15.80;14.20;;;16.70;99.90;;;;;;5963853;23;20172;-89
2023/09/27 18:28:23;;;;;;;19.43;15.33;;;16.20;99.90;;;;;;5600370;25;20290;-86
2023/09/27 18:53:52;;;;;;;21.33;17.60;;;15.80;99.90;;;;;;5678039;25;20181;-86
2023/09/27 20:10:05;;;;;;;29.87;21.97;;;14.40;99.90;;;;;;5802249;24;20708;-86
2023/09/27 20:14:24;;;;;;;29.63;22.83;;;14.30;99.90;;;;;;5763582;24;20418;-86
2023/09/27 20:49:55;;;;;;;34.30;26.20;;;14.00;99.90;;;;;;6014895;23;20213;-88
2023/09/27 21:10:51;;;;;;;34.40;24.33;;;13.90;99.90;;;;;;5947601;24;20171;-84
2023/09/27 21:31:14;;;;;;;34.73;24.57;;;13.50;99.90;;;;;;5977723;23;20187;-86
2023/09/27 21:51:22;;;;;;;33.13;24.43;;;13.40;99.90;;;;;;5647981;25;20882;-87
2023/09/27 22:16:12;;;;;;;36.40;26.37;;;12.80;99.90;;;;;;5691945;24;20575;-88
2023/09/27 23:12:24;;;;;;;38.17;27.23;;;12.30;99.90;;;;;;5954149;23;20744;-85
2023/09/27 23:47:56;;;;;;;38.83;26.37;;;12.00;99.90;;;;;;5984332;23;20362;-86
